createdAt,value
2022-09-28T00:01:24.179Z,94908.69
2022-09-28T00:03:52.281Z,95004.16
2022-09-28T00:06:20.516Z,94792.38
2022-09-28T00:08:47.220Z,94788.84
2022-09-28T00:11:15.437Z,95057.03
2022-09-28T00:13:42.931Z,95019.06
2022-09-28T00:16:14.145Z,95024.09
2022-09-28T00:18:41.194Z,95041.75
2022-09-28T00:21:12.949Z,94965.75
2022-09-28T00:23:59.804Z,94999.66
2022-09-28T00:26:27.615Z,94785.47
2022-09-28T00:28:55.015Z,94779.06
2022-09-28T00:31:22.195Z,94895.63
2022-09-28T00:33:57.690Z,94868.31
2022-09-28T00:36:24.757Z,95124.63
2022-09-28T00:38:52.325Z,95095.97
2022-09-28T00:41:18.985Z,95124.47
2022-09-28T00:43:45.637Z,94894.81
2022-09-28T00:49:59.125Z,95104.22
2022-09-28T00:52:30.275Z,94999.41
2022-09-28T00:54:57.496Z,94948.78
2022-09-28T00:57:24.116Z,95028.97
2022-09-28T00:59:50.835Z,94728.16
2022-09-28T01:02:17.532Z,94957.78
2022-09-28T01:04:44.138Z,95111.47
2022-09-28T01:07:10.724Z,94998.09
2022-09-28T01:09:38.782Z,94924.06
2022-09-28T01:12:05.758Z,95114.38
2022-09-28T01:14:32.327Z,94900.13
2022-09-28T01:17:11.798Z,95096.97
2022-09-28T01:20:34.316Z,95100.00
2022-09-28T01:23:24.322Z,95100.69
2022-09-28T01:26:12.604Z,95091.31
2022-09-28T01:28:39.274Z,95001.13
2022-09-28T01:31:09.782Z,94989.56
2022-09-28T01:34:10.355Z,95002.88
2022-09-28T01:36:46.486Z,94975.69
2022-09-28T01:39:34.752Z,94906.31
2022-09-28T01:42:08.285Z,94822.03
2022-09-28T01:44:47.578Z,94985.81
2022-09-28T01:47:15.280Z,94961.97
2022-09-28T01:49:46.288Z,94825.06
2022-09-28T01:52:20.935Z,94867.25
2022-09-28T01:54:53.648Z,94826.78
2022-09-28T01:57:24.829Z,95096.16
2022-09-28T02:00:21.271Z,95100.66
2022-09-28T02:03:17.564Z,95046.94
2022-09-28T02:05:48.727Z,94972.47
2022-09-28T02:08:28.525Z,94933.78
2022-09-28T02:11:00.739Z,95106.03
2022-09-28T02:13:30.327Z,94862.69
2022-09-28T02:16:09.036Z,95087.94
2022-09-28T02:18:35.708Z,94996.06
2022-09-28T02:21:15.349Z,94940.53
2022-09-28T02:23:51.325Z,95009.34
2022-09-28T02:26:17.904Z,94860.78
2022-09-28T02:28:44.469Z,94839.44
2022-09-28T02:31:11.075Z,95099.19
2022-09-28T02:33:38.835Z,95006.81
2022-09-28T02:36:05.542Z,94801.94
2022-09-28T02:38:32.242Z,95000.56
2022-09-28T02:41:17.022Z,95101.81
2022-09-28T02:43:43.501Z,95093.09
2022-09-28T02:46:22.291Z,95101.81
2022-09-28T02:49:21.002Z,95097.63
2022-09-28T02:51:54.351Z,95095.22
2022-09-28T02:54:28.428Z,95085.47
2022-09-28T02:57:33.068Z,94953.09
2022-09-28T03:00:08.053Z,95082.13
2022-09-28T03:02:34.476Z,95100.59
2022-09-28T03:05:14.680Z,95099.00
2022-09-28T03:08:00.253Z,95106.94
2022-09-28T03:10:41.026Z,95110.50
2022-09-28T03:13:07.662Z,95028.28
2022-09-28T03:15:35.558Z,95106.53
2022-09-28T03:18:02.266Z,95036.13
2022-09-28T03:20:29.647Z,94906.13
2022-09-28T03:23:22.820Z,95091.47
2022-09-28T03:25:42.887Z,94969.09
2022-09-28T03:28:09.461Z,95070.03
2022-09-28T03:30:36.040Z,95033.19
2022-09-28T03:33:03.272Z,95039.75
2022-09-28T03:35:29.984Z,94966.03
2022-09-28T03:37:56.828Z,94832.56
2022-09-28T03:40:23.581Z,95043.00
2022-09-28T03:42:50.252Z,94930.78
2022-09-28T03:45:16.918Z,94914.78
2022-09-28T03:47:47.083Z,94793.34
2022-09-28T03:50:13.860Z,94969.59
2022-09-28T03:52:40.469Z,94907.22
2022-09-28T03:55:07.428Z,94826.38
2022-09-28T03:57:34.023Z,94886.91
2022-09-28T04:00:00.940Z,95084.88
2022-09-28T04:02:27.595Z,94907.94
2022-09-28T04:04:54.315Z,94854.84
2022-09-28T04:07:20.965Z,94837.69
2022-09-28T04:09:47.591Z,95019.22
2022-09-28T04:12:14.186Z,94838.16
2022-09-28T04:14:40.782Z,94910.38
2022-09-28T04:17:07.417Z,95037.41
2022-09-28T04:19:34.059Z,95015.47
2022-09-28T04:22:01.999Z,95103.47
2022-09-28T04:24:28.735Z,94994.72
2022-09-28T04:27:18.088Z,94893.25
2022-09-28T04:29:44.804Z,95113.28
2022-09-28T04:32:12.062Z,94781.88
2022-09-28T04:34:43.173Z,94795.19
2022-09-28T04:37:10.662Z,94856.78
2022-09-28T04:39:37.302Z,94802.75
2022-09-28T04:42:03.927Z,94929.06
2022-09-28T04:44:30.600Z,94957.00
2022-09-28T04:46:59.655Z,94984.47
2022-09-28T04:49:28.301Z,94951.72
2022-09-28T04:51:54.956Z,94757.50
2022-09-28T04:54:21.538Z,94991.72
2022-09-28T04:56:48.133Z,95000.81
2022-09-28T04:59:14.840Z,95040.50
2022-09-28T05:01:41.716Z,94881.09
2022-09-28T05:04:08.269Z,94823.28
2022-09-28T05:06:34.906Z,95020.94
2022-09-28T05:09:01.603Z,95027.84
2022-09-28T05:11:28.227Z,95008.72
2022-09-28T05:13:55.167Z,94925.03
2022-09-28T05:16:21.824Z,94939.31
2022-09-28T05:18:48.504Z,94952.34
2022-09-28T05:21:15.589Z,94966.84
2022-09-28T05:23:46.221Z,94913.16
2022-09-28T05:26:12.874Z,94760.38
2022-09-28T05:28:39.557Z,95027.44
2022-09-28T05:31:06.278Z,95068.56
2022-09-28T05:33:33.098Z,94976.25
2022-09-28T05:36:01.492Z,94930.34
2022-09-28T05:38:28.721Z,94955.72
2022-09-28T05:40:55.395Z,94932.09
2022-09-28T05:43:22.133Z,94892.75
2022-09-28T05:45:53.026Z,94960.38
2022-09-28T05:48:21.818Z,94856.34
2022-09-28T05:50:52.516Z,94959.94
2022-09-28T05:53:19.260Z,94937.88
2022-09-28T05:55:45.887Z,94996.19
2022-09-28T05:58:12.442Z,94947.88
2022-09-28T06:00:38.996Z,95053.84
2022-09-28T06:03:09.106Z,94952.16
2022-09-28T06:05:36.353Z,95079.03
2022-09-28T06:08:04.401Z,94832.88
2022-09-28T06:10:31.257Z,95000.47
2022-09-28T06:12:58.507Z,94957.59
2022-09-28T06:15:30.318Z,94983.41
2022-09-28T06:18:06.935Z,94975.06
2022-09-28T06:20:35.723Z,94977.44
2022-09-28T06:23:02.435Z,94888.97
2022-09-28T06:25:29.100Z,94967.28
2022-09-28T06:28:12.227Z,95025.03
2022-09-28T06:30:39.249Z,94981.84
2022-09-28T06:33:06.922Z,94916.47
2022-09-28T06:35:33.840Z,94764.25
2022-09-28T06:38:00.688Z,94801.84
2022-09-28T06:40:27.393Z,94731.78
2022-09-28T06:43:01.651Z,94950.78
2022-09-28T06:45:29.099Z,94980.00
2022-09-28T06:47:56.766Z,95049.34
2022-09-28T06:50:27.034Z,94913.59
2022-09-28T06:52:54.176Z,94931.69
2022-09-28T06:55:21.439Z,94804.38
2022-09-28T06:57:48.211Z,94946.84
2022-09-28T07:00:16.544Z,95045.31
2022-09-28T07:02:43.189Z,94828.00
2022-09-28T07:05:12.445Z,95061.75
2022-09-28T07:07:40.424Z,94989.94
2022-09-28T07:10:08.423Z,94927.13
2022-09-28T07:12:35.894Z,94985.81
2022-09-28T07:15:02.564Z,94956.47
2022-09-28T07:17:29.367Z,94965.03
2022-09-28T07:20:00.256Z,94933.94
2022-09-28T07:22:40.608Z,94935.47
2022-09-28T07:25:09.966Z,94941.66
2022-09-28T07:27:39.595Z,94963.16
2022-09-28T07:30:06.858Z,94861.13
2022-09-28T07:32:37.478Z,94975.81
2022-09-28T07:35:09.270Z,94958.41
2022-09-28T07:37:36.121Z,94938.22
2022-09-28T07:40:25.651Z,94946.13
2022-09-28T07:42:52.346Z,94977.03
2022-09-28T07:45:20.784Z,94922.72
2022-09-28T07:47:47.414Z,94937.78
2022-09-28T07:50:13.975Z,94932.94
2022-09-28T07:52:40.650Z,94977.25
2022-09-28T07:55:07.859Z,94984.47
2022-09-28T07:57:35.423Z,94825.66
2022-09-28T08:00:02.502Z,94956.50
2022-09-28T08:02:32.479Z,94919.69
2022-09-28T08:04:59.783Z,94916.28
2022-09-28T08:07:26.391Z,94887.09
2022-09-28T08:09:52.948Z,94961.19
2022-09-28T08:12:19.862Z,95017.69
2022-09-28T08:14:46.868Z,95037.00
2022-09-28T08:17:13.614Z,95014.91
2022-09-28T08:19:58.960Z,94956.66
2022-09-28T08:22:25.579Z,94973.78
2022-09-28T08:24:52.156Z,94915.59
2022-09-28T08:27:18.713Z,95030.13
2022-09-28T08:29:45.360Z,95033.94
2022-09-28T08:32:11.910Z,94945.84
2022-09-28T08:34:39.724Z,94952.63
2022-09-28T08:39:57.733Z,94948.22
2022-09-28T08:42:35.466Z,94975.03
2022-09-28T08:45:07.956Z,94944.09
2022-09-28T08:48:25.355Z,94966.72
2022-09-28T08:50:54.786Z,94978.59
2022-09-28T08:53:33.165Z,95032.06
2022-09-28T08:55:59.982Z,94961.78
2022-09-28T08:58:28.404Z,94958.75
2022-09-28T09:00:54.974Z,95014.16
2022-09-28T09:03:26.933Z,94972.38
2022-09-28T09:06:06.086Z,95024.13
2022-09-28T09:08:39.710Z,94833.44
2022-09-28T09:11:22.082Z,95009.81
2022-09-28T09:14:03.856Z,95007.84
2022-09-28T09:16:49.385Z,95003.84
2022-09-28T09:19:36.287Z,95003.63
2022-09-28T09:22:16.265Z,94954.75
2022-09-28T09:24:50.399Z,94984.91
2022-09-28T09:27:30.527Z,94990.06
2022-09-28T09:30:09.623Z,94945.91
2022-09-28T09:32:43.628Z,94881.38
2022-09-28T09:35:40.683Z,94990.41
2022-09-28T09:38:09.796Z,94985.00
2022-09-28T09:40:43.308Z,94992.50
2022-09-28T09:43:32.012Z,94993.19
2022-09-28T09:46:10.802Z,94992.63
2022-09-28T09:48:43.264Z,94980.78
2022-09-28T09:51:32.964Z,94979.22
2022-09-28T09:54:02.072Z,94845.03
2022-09-28T09:56:40.893Z,94857.09
2022-09-28T09:59:10.146Z,94910.22
2022-09-28T10:01:38.982Z,94947.28
2022-09-28T10:04:08.498Z,94869.59
2022-09-28T10:06:35.553Z,94939.56
2022-09-28T10:09:10.327Z,94890.16
2022-09-28T10:11:39.696Z,94875.94
2022-09-28T10:14:12.010Z,94911.91
2022-09-28T10:16:38.672Z,94691.59
2022-09-28T10:19:05.344Z,94755.19
2022-09-28T10:21:32.574Z,94676.00
2022-09-28T10:23:59.668Z,94732.50
2022-09-28T10:26:47.052Z,94921.53
2022-09-28T10:29:20.258Z,94893.34
2022-09-28T10:31:50.791Z,94828.28
2022-09-28T10:34:19.664Z,94866.09
2022-09-28T10:37:07.085Z,94829.28
2022-09-28T10:39:45.639Z,94915.72
2022-09-28T10:42:13.247Z,94855.59
2022-09-28T10:44:53.450Z,94919.44
2022-09-28T10:47:20.914Z,94869.63
2022-09-28T10:49:48.843Z,94876.66
2022-09-28T10:52:35.284Z,94872.59
2022-09-28T10:55:21.812Z,94923.47
2022-09-28T10:57:48.504Z,94851.13
2022-09-28T11:00:33.813Z,94896.06
2022-09-28T11:03:00.941Z,94906.78
2022-09-28T11:05:28.055Z,94769.13
2022-09-28T11:07:55.949Z,94691.50
2022-09-28T11:10:26.143Z,94902.91
2022-09-28T11:12:52.939Z,94822.31
2022-09-28T11:15:21.411Z,94805.88
2022-09-28T11:17:48.143Z,94735.91
2022-09-28T11:20:30.623Z,94834.59
2022-09-28T11:23:22.716Z,94911.31
2022-09-28T11:26:05.750Z,94902.97
2022-09-28T11:28:37.796Z,94913.63
2022-09-28T11:31:07.281Z,94892.16
2022-09-28T11:33:39.021Z,94807.03
2022-09-28T11:36:14.662Z,94899.63
2022-09-28T11:39:09.241Z,94900.09
2022-09-28T11:42:02.018Z,94880.25
2022-09-28T11:44:36.750Z,94893.78
2022-09-28T11:47:15.422Z,94889.09
2022-09-28T11:49:46.477Z,94845.88
2022-09-28T11:52:33.236Z,94890.44
2022-09-28T11:55:03.290Z,94814.28
2022-09-28T11:57:32.713Z,94744.56
2022-09-28T12:00:01.942Z,94799.84
2022-09-28T12:02:36.589Z,94851.16
2022-09-28T12:05:15.910Z,94616.78
2022-09-28T12:07:47.747Z,94669.56
2022-09-28T12:10:19.884Z,94811.44
2022-09-28T12:13:31.466Z,94846.44
2022-09-28T12:18:57.384Z,94736.31
2022-09-28T12:21:44.060Z,94844.81
2022-09-28T12:24:29.389Z,94852.28
2022-09-28T12:27:04.950Z,94848.97
2022-09-28T12:29:41.088Z,94853.09
2022-09-28T12:32:28.438Z,94784.84
2022-09-28T12:34:55.751Z,94819.41
2022-09-28T12:37:42.547Z,94846.47
2022-09-28T12:40:18.162Z,94850.75
2022-09-28T12:43:06.396Z,94843.34
2022-09-28T12:46:06.748Z,94864.16
2022-09-28T12:48:52.973Z,94868.94
2022-09-28T12:51:48.722Z,94844.47
2022-09-28T12:54:39.032Z,94857.94
2022-09-28T12:57:24.392Z,94832.97
2022-09-28T13:00:04.805Z,94853.44
2022-09-28T13:02:57.732Z,94856.28
2022-09-28T13:05:30.243Z,94849.88
2022-09-28T13:08:09.136Z,94841.44
2022-09-28T13:10:43.888Z,94842.81
2022-09-28T13:13:38.287Z,94839.59
2022-09-28T13:16:26.763Z,94832.59
2022-09-28T13:19:16.945Z,94829.56
2022-09-28T13:21:52.844Z,94837.69
2022-09-28T13:24:32.791Z,94749.41
2022-09-28T13:27:22.658Z,94833.03
2022-09-28T13:29:50.399Z,94808.19
2022-09-28T13:32:17.421Z,94736.88
2022-09-28T13:34:44.068Z,94844.31
2022-09-28T13:37:41.537Z,94765.84
2022-09-28T13:40:08.463Z,94848.91
2022-09-28T13:42:47.653Z,94836.94
2022-09-28T13:45:20.189Z,94846.41
2022-09-28T13:48:05.353Z,94837.22
2022-09-28T13:50:54.284Z,94818.97
2022-09-28T13:53:46.887Z,94828.22
2022-09-28T13:56:39.842Z,94815.44
2022-09-28T13:59:18.388Z,94832.66
2022-09-28T14:02:15.415Z,94809.28
2022-09-28T14:05:00.310Z,94767.16
2022-09-28T14:07:36.533Z,94789.06
2022-09-28T14:10:23.663Z,94830.03
2022-09-28T14:12:51.567Z,94767.63
2022-09-28T14:15:30.780Z,94826.78
2022-09-28T14:18:15.669Z,94828.59
2022-09-28T14:21:02.751Z,94811.56
2022-09-28T14:23:34.594Z,94809.28
2022-09-28T14:26:48.268Z,94813.25
2022-09-28T14:29:34.563Z,94772.63
2022-09-28T14:32:05.785Z,94764.47
2022-09-28T14:34:42.691Z,94631.72
2022-09-28T14:37:38.486Z,94804.53
2022-09-28T14:40:39.050Z,94822.38
2022-09-28T14:43:24.480Z,94823.06
2022-09-28T14:46:15.297Z,94800.72
2022-09-28T14:49:10.041Z,94817.16
2022-09-28T14:51:43.399Z,94811.00
2022-09-28T14:54:12.832Z,94817.78
2022-09-28T14:56:40.425Z,94820.97
2022-09-28T14:59:07.467Z,94774.19
2022-09-28T15:01:34.266Z,94678.41
2022-09-28T15:04:04.661Z,94777.63
2022-09-28T15:06:50.703Z,94814.53
2022-09-28T15:09:29.782Z,94742.63
2022-09-28T15:12:20.919Z,94836.72
2022-09-28T15:15:04.582Z,94780.00
2022-09-28T15:17:39.707Z,94710.88
2022-09-28T15:20:12.804Z,94852.97
2022-09-28T15:22:44.973Z,94799.94
2022-09-28T15:25:19.984Z,94811.53
2022-09-28T15:27:56.446Z,94844.34
2022-09-28T15:30:23.330Z,94846.22
2022-09-28T15:32:50.545Z,94749.41
2022-09-28T15:35:25.621Z,94808.63
2022-09-28T15:37:52.700Z,94640.25
2022-09-28T15:40:21.202Z,94790.13
2022-09-28T15:42:47.908Z,94681.09
2022-09-28T15:45:14.439Z,94833.72
2022-09-28T15:47:44.904Z,94634.09
2022-09-28T15:50:28.382Z,94812.03
2022-09-28T15:53:00.717Z,94807.22
2022-09-28T15:55:37.896Z,94679.50
2022-09-28T15:58:24.822Z,94832.78
2022-09-28T16:01:12.219Z,94740.91
2022-09-28T16:03:38.886Z,94821.50
2022-09-28T16:06:07.579Z,94800.09
2022-09-28T16:08:39.744Z,94804.00
2022-09-28T16:11:20.001Z,94857.75
2022-09-28T16:14:07.332Z,94861.78
2022-09-28T16:16:42.174Z,94829.66
2022-09-28T16:19:37.373Z,94858.97
2022-09-28T16:22:06.436Z,94767.09
2022-09-28T16:24:37.104Z,94786.06
2022-09-28T16:27:06.437Z,94857.91
2022-09-28T16:29:39.966Z,94874.19
2022-09-28T16:32:38.434Z,94794.47
2022-09-28T16:35:13.721Z,94872.41
2022-09-28T16:37:42.741Z,94744.59
2022-09-28T16:40:10.120Z,94640.81
2022-09-28T16:42:36.753Z,94807.88
2022-09-28T16:45:05.314Z,94719.97
2022-09-28T16:47:35.240Z,94793.50
2022-09-28T16:50:03.947Z,94781.66
2022-09-28T16:52:49.058Z,94823.75
2022-09-28T16:55:38.947Z,94751.22
2022-09-28T16:58:04.935Z,94876.09
2022-09-28T17:00:31.948Z,94783.31
2022-09-28T17:02:58.638Z,94823.13
2022-09-28T17:05:25.567Z,94771.88
2022-09-28T17:08:00.794Z,94829.66
2022-09-28T17:10:56.207Z,94839.44
2022-09-28T17:13:31.429Z,94827.53
2022-09-28T17:15:58.411Z,94814.22
2022-09-28T17:18:25.049Z,94760.53
2022-09-28T17:20:52.169Z,94848.47
2022-09-28T17:25:45.998Z,94853.69
2022-09-28T17:28:23.686Z,94813.03
2022-09-28T17:30:50.473Z,94879.06
2022-09-28T17:33:17.320Z,94656.19
2022-09-28T17:35:44.082Z,94885.22
2022-09-28T17:38:14.976Z,94883.84
2022-09-28T17:40:42.611Z,94926.81
2022-09-28T17:43:09.478Z,94816.53
2022-09-28T17:45:39.083Z,94681.56
2022-09-28T17:48:06.701Z,94858.13
2022-09-28T17:50:34.281Z,94649.47
2022-09-28T17:53:03.872Z,94840.53
2022-09-28T17:55:31.940Z,94634.56
2022-09-28T17:58:02.024Z,94812.00
2022-09-28T18:00:28.776Z,94920.16
2022-09-28T18:02:56.150Z,94931.16
2022-09-28T18:05:24.974Z,94942.19
2022-09-28T18:07:52.092Z,94876.75
2022-09-28T18:10:21.456Z,94906.69
2022-09-28T18:12:49.349Z,94911.06
2022-09-28T18:15:16.450Z,94875.13
2022-09-28T18:17:43.017Z,94875.16
2022-09-28T18:20:10.207Z,94906.09
2022-09-28T18:22:36.885Z,94955.63
2022-09-28T18:25:04.218Z,94888.50
2022-09-28T18:27:31.143Z,94940.03
2022-09-28T18:29:57.866Z,94930.47
2022-09-28T18:32:24.546Z,94790.13
2022-09-28T18:34:51.230Z,94878.53
2022-09-28T18:37:17.859Z,94912.31
2022-09-28T18:39:45.195Z,94897.53
2022-09-28T18:42:12.504Z,94819.69
2022-09-28T18:44:39.071Z,94944.69
2022-09-28T18:47:05.619Z,94876.75
2022-09-28T18:49:33.624Z,94968.84
2022-09-28T18:52:01.327Z,94919.91
2022-09-28T18:54:27.952Z,94874.75
2022-09-28T18:56:56.418Z,94961.66
2022-09-28T18:59:23.451Z,94894.94
2022-09-28T19:01:50.310Z,94913.13
2022-09-28T19:04:17.071Z,94829.09
2022-09-28T19:06:44.889Z,94932.28
2022-09-28T19:09:11.745Z,94922.69
2022-09-28T19:11:38.457Z,94993.00
2022-09-28T19:14:05.081Z,94930.31
2022-09-28T19:16:33.790Z,94936.88
2022-09-28T19:19:02.860Z,94942.50
2022-09-28T19:21:30.131Z,94947.50
2022-09-28T19:23:56.774Z,94926.91
2022-09-28T19:26:24.920Z,94962.25
2022-09-28T19:28:51.517Z,94993.81
2022-09-28T19:31:18.870Z,94825.06
2022-09-28T19:33:46.550Z,94902.13
2022-09-28T19:36:17.232Z,94933.91
2022-09-28T19:38:44.104Z,94787.75
2022-09-28T19:41:49.515Z,94944.28
2022-09-28T19:44:27.563Z,94736.66
2022-09-28T19:47:07.085Z,94951.47
2022-09-28T19:49:36.988Z,94932.91
2022-09-28T19:52:13.377Z,94941.88
2022-09-28T19:55:00.343Z,94944.28
2022-09-28T19:57:28.635Z,94987.84
2022-09-28T20:00:00.808Z,95005.28
2022-09-28T20:02:28.674Z,95030.44
2022-09-28T20:04:55.507Z,94980.03
2022-09-28T20:07:22.130Z,94913.94
2022-09-28T20:09:48.799Z,94944.06
2022-09-28T20:12:15.398Z,94973.84
2022-09-28T20:14:41.986Z,94978.25
2022-09-28T20:17:09.341Z,94946.50
2022-09-28T20:19:36.124Z,94969.06
2022-09-28T20:22:03.132Z,94963.88
2022-09-28T20:24:31.366Z,94959.66
2022-09-28T20:26:58.141Z,95000.03
2022-09-28T20:29:24.939Z,95051.44
2022-09-28T20:31:51.999Z,94998.22
2022-09-28T20:34:18.670Z,94998.44
2022-09-28T20:36:45.252Z,95061.44
2022-09-28T20:39:12.030Z,95004.03
2022-09-28T20:41:38.727Z,94977.66
2022-09-28T20:44:06.339Z,95028.00
2022-09-28T20:46:35.058Z,94912.72
2022-09-28T20:49:01.935Z,95039.63
2022-09-28T20:51:28.723Z,95041.22
2022-09-28T20:53:56.593Z,95038.41
2022-09-28T20:56:38.765Z,95033.00
2022-09-28T20:59:07.451Z,95043.97
2022-09-28T21:01:34.315Z,94989.00
2022-09-28T21:04:01.991Z,95013.00
2022-09-28T21:06:33.577Z,95063.16
2022-09-28T21:09:00.251Z,94887.22
2022-09-28T21:11:28.129Z,95049.75
2022-09-28T21:13:55.814Z,95001.34
2022-09-28T21:16:22.539Z,94980.16
2022-09-28T21:18:49.158Z,94944.34
2022-09-28T21:21:17.115Z,95071.72
2022-09-28T21:23:46.525Z,95062.94
2022-09-28T21:26:15.788Z,95024.53
2022-09-28T21:28:42.451Z,95053.72
2022-09-28T21:31:10.404Z,95066.09
2022-09-28T21:33:37.286Z,94999.84
2022-09-28T21:36:05.137Z,95008.06
2022-09-28T21:38:31.750Z,94932.28
2022-09-28T21:40:59.257Z,95022.84
2022-09-28T21:43:27.400Z,95052.28
2022-09-28T21:45:54.714Z,95010.66
2022-09-28T21:48:21.823Z,94991.22
2022-09-28T21:51:01.833Z,95042.44
2022-09-28T21:53:29.951Z,94992.00
2022-09-28T21:55:57.002Z,95005.00
2022-09-28T21:58:24.941Z,95046.19
2022-09-28T22:00:56.920Z,95053.78
2022-09-28T22:03:25.807Z,95020.19
2022-09-28T22:05:52.478Z,95079.97
2022-09-28T22:08:19.718Z,95091.00
2022-09-28T22:10:46.702Z,94976.53
2022-09-28T22:13:13.272Z,95114.97
2022-09-28T22:15:39.872Z,94971.50
2022-09-28T22:18:06.468Z,95007.72
2022-09-28T22:20:33.153Z,95089.19
2022-09-28T22:22:59.776Z,94976.34
2022-09-28T22:25:26.408Z,94799.69
2022-09-28T22:27:53.205Z,95010.09
2022-09-28T22:30:19.782Z,95064.06
2022-09-28T22:32:46.380Z,94947.81
2022-09-28T22:35:12.960Z,95043.25
2022-09-28T22:37:39.525Z,95040.94
2022-09-28T22:40:06.691Z,95068.19
2022-09-28T22:42:33.232Z,95080.56
2022-09-28T22:44:59.851Z,95056.13
2022-09-28T22:47:26.469Z,95080.09
2022-09-28T22:49:53.096Z,95087.25
2022-09-28T22:52:19.668Z,95056.97
2022-09-28T22:54:46.253Z,95105.19
2022-09-28T22:57:13.103Z,95101.72
2022-09-28T22:59:39.639Z,95126.09
2022-09-28T23:02:06.450Z,95032.75
2022-09-28T23:04:33.186Z,95120.28
2022-09-28T23:06:59.920Z,95054.94
2022-09-28T23:09:26.494Z,95100.44
2022-09-28T23:11:53.059Z,95083.22
2022-09-28T23:14:19.654Z,95110.22
2022-09-28T23:16:46.226Z,95088.53
2022-09-28T23:19:12.786Z,95086.25
2022-09-28T23:21:39.649Z,95079.78
2022-09-28T23:24:06.266Z,95070.63
2022-09-28T23:26:33.273Z,95071.16
2022-09-28T23:29:00.091Z,95050.38
2022-09-28T23:31:29.377Z,95042.28
2022-09-28T23:34:00.395Z,95089.69
2022-09-28T23:36:27.123Z,95096.72
2022-09-28T23:38:53.714Z,94944.84
2022-09-28T23:41:20.281Z,95047.38
2022-09-28T23:43:46.867Z,95049.13
2022-09-28T23:46:16.212Z,95132.28
2022-09-28T23:48:46.287Z,95032.22
2022-09-28T23:51:12.868Z,95107.38
2022-09-28T23:53:39.730Z,95139.00
2022-09-28T23:56:06.385Z,95124.69
2022-09-28T23:58:32.976Z,95075.22
